Quimperlé, Foret de Toulfoen (29) - K

Date : 02/11/2012
Distance : 4,000 km

Place Nom Licence Catégorie Club Temps min/km CN à J-60 Points Différence Nouveau CN
1 DROIN Solène 17925 D16 4201RA 0:30:03 7'30 5692 6092 +400 7630
2 GIRARD Lucille 19689 D16 3705CE 0:32:29 8'07 5502 5636 +134 5835
3 BEAUVIR Maëlle 12709 D16 3502BR 0:32:30 8'07 5508 5633 +125 6305
4 HABERKORN Chloé 10396 D16 2105BO 0:33:15 8'18 6560 5506 -1054 6560
5 BORNARD Julie 9402 D16 7305RA 0:34:33 8'38 5220 5299 +79 6136
6 BERRARD Anna 19762 D16 2607RA 0:35:13 8'48 5004 5198 +194 5711
7 LOTERIE Laurine 7045 D20 5907NO 0:35:30 8'52 5953 5157 -796 6018
8 LUTHRINGER Coline 10091 D16 8809LO 0:36:48 9'12 4894 4975 +81 4958
9 DUQUENNE Audrey 23885 D16 5907NO 0:37:24 9'21 4168 4895 +727 4749
10 PETER-JAN Lucile 19276 D16 3705CE 0:37:55 9'28 5024 4828 -196 5157
11 VALETTE Marion 10430 D16 6913RA 0:38:55 9'43 4501 4704 +203 5367
12 BONDIVENNE Perrine 8914 D16 6408AQ 0:38:59 9'44 5652 4696 -956 5652
13 BODY Mathilde 10184 D16 7305RA 0:39:42 9'55 5805 4611 -1194 6872
14 ROULLEAUX Julie 11559 D16 9105IF 0:40:14 10'03 5089 4550 -539 5717
15 FOL Loreline 16393 D16 3105MP 0:41:16 10'19 4599 4436 -163 4949
16 STARKE Paula 26505 D16 6913RA 0:41:42 10'25 4390 5327
17 GUINOT Marion 15018 D16 2108BO 0:42:14 10'33 4126 4335 +209 4305
18 CRETE Juliette 18829 D16 6008PI 0:44:05 11'01 3183 4153 +970 4194
19 BESTEL Sandra 10758 D16 9105IF 0:44:28 11'07 4077 4117 +40 4481
20 MOLINIER Caroline 6487 D16 9105IF 0:44:41 11'10 4246 4097 -149 4323
21 GUILLOT Jeanne 20364 D16 7004FC 0:46:00 11'30 3263 3980 +717 3683
22 PICAZO Marie 16555 D16 8405PR 0:46:52 11'43 4857 3906 -951 5210
23 BUCAMP Noémie 25200 D16 6008PI 0:47:12 11'48 2088 3879 +1791 3618
24 VASILYEVA Véronika 25923 D16 5402LO 0:47:40 11'55 2848 3841 +993 4032
25 ELIAS Pauline 16137 D16 1307PR 0:48:17 12'04 3981 3792 -189 4477
26 LECUYER Manon 22549 D16 5907NO 0:48:42 12'10 2960 3759 +799 3827
27 BASSET Fiona 23384 D16 6911RA 0:48:52 12'13 5135 3746 -1389 5669
28 ANGLADE Lucile 21188 D16 5604BR 0:49:37 12'24 4379 3690 -689 4474
29 MOREL Fanny 25556 D16 9502IF 0:49:47 12'26 1877 3677 +1800 2857
30 RIVOLLIER Isaline 22451 D16 4201RA 0:49:56 12'29 4550 3666 -884 5051
31 SOUAN Cécile 26423 D16 7707IF 0:50:46 12'41 2262 3606 +1344 3385
32 DELAPORTE Léa 20067 D16 5116CA 0:52:50 13'12 3285 3465 +180 4005
33 DELVA Lou 26620 D16 7407RA 0:54:57 13'44 3332 2876
34 DASILVA Auriane 12758 D16 7707IF 0:55:24 13'51 2605 3305 +700 3177
35 ALLE Capucine 25922 D16 5402LO 0:58:23 14'35 1252 3136 +1884 3048
36 JEANNERET Julie 20160 D16 7109BO 0:58:44 14'41 2256 3117 +861 3032
37 DUFOUR Marie 26623 D16 7407RA 1:01:09 15'17 2994 2664
38 BERCHE Léa 24420 D16 5907NO 1:04:55 16'13 3153 2820 -333 3229
39 BULLIER Alisson 23427 D16 0207PI 1:05:00 16'15 2720 2817 +97 3458
40 DESCOURVIERES Perrine 25550 D16 7407RA 1:06:10 16'32 2150 2767 +617 2773
41 DOUTRELANT Justine 26929 D16 5907NO 1:08:41 17'10 2665 2572
42 MORIN Lucie 23393 D16 2208BR 1:11:15 17'48 1637 2569 +932 2116
43 FIGARD Cécile 26475 D16 7707IF 1:41:14 25'18 0 1808 2028